Time;durP1;ratioP1;P1;durP2;ratioP2;P2;SDS_P1;SDS_P2;PMS_P1;PMS_P2;Temp;Humidity;BMP_temperature;BMP_pressure;BME280_temperature;BME280_humidity;BME280_pressure;Samples;Min_cycle;Max_cycle;Signal;HPM_P1;HPM_P2
2022/11/01 00:01:06;;;;;;;10.75;5.88;;;;;;;10.56;90.43;97685.84;5022283;28;20049;-65
2022/11/01 00:03:33;;;;;;;16.02;6.18;;;;;;;10.61;90.00;97680.88;5023227;28;20049;-61
2022/11/01 00:06:00;;;;;;;14.93;6.22;;;;;;;10.61;90.36;97683.66;5025803;28;20652;-62
2022/11/01 00:08:26;;;;;;;14.77;6.55;;;;;;;10.73;89.38;97680.78;5027349;28;20590;-69
2022/11/01 00:11:01;;;;;;;16.17;6.50;;;;;;;10.46;89.79;97642.88;5027536;28;20154;-68
2022/11/01 00:13:27;;;;;;;16.17;6.47;;;;;;;10.76;89.61;97678.47;5027516;28;20100;-68
2022/11/01 00:15:54;;;;;;;14.35;6.10;;;;;;;10.77;89.72;97680.09;5025903;28;20088;-69
2022/11/01 00:18:21;;;;;;;18.55;7.25;;;;;;;10.48;90.25;97640.56;5026924;28;20091;-67
2022/11/01 00:20:47;;;;;;;15.55;6.72;;;;;;;10.72;90.22;97674.81;5025708;28;20706;-62
2022/11/01 00:23:14;;;;;;;16.08;7.97;;;;;;;10.81;89.82;97686.53;5027352;28;20132;-65
2022/11/01 00:25:41;;;;;;;17.50;7.75;;;;;;;10.86;89.02;97675.97;5026954;28;20104;-62
2022/11/01 00:28:07;;;;;;;18.10;6.65;;;;;;;10.94;88.67;97696.41;5025586;28;20592;-68
2022/11/01 00:30:38;;;;;;;14.13;5.28;;;;;;;10.92;88.60;97673.75;5027036;28;20103;-68
2022/11/01 00:33:05;;;;;;;10.73;5.45;;;;;;;10.90;88.69;97685.22;5026412;28;20532;-71
2022/11/01 00:35:33;;;;;;;10.68;4.90;;;;;;;10.83;88.59;97656.50;5029507;28;20507;-71
2022/11/01 00:37:59;;;;;;;12.75;5.80;;;;;;;10.46;86.27;97676.09;5037359;28;20762;-69
2022/11/01 00:40:26;;;;;;;12.75;6.65;;;;;;;10.09;86.01;97605.47;5032214;28;20057;-67
2022/11/01 00:42:54;;;;;;;19.23;8.00;;;;;;;10.25;85.50;97642.31;5029805;28;20060;-68
2022/11/01 00:45:21;;;;;;;12.05;5.95;;;;;;;9.99;84.86;97594.84;5028332;28;20155;-68
2022/11/01 00:47:47;;;;;;;12.98;5.97;;;;;;;10.26;85.27;97668.81;5029188;28;20472;-68
2022/11/01 00:50:14;;;;;;;12.32;5.93;;;;;;;9.94;86.62;97631.09;5029760;28;20053;-69
2022/11/01 00:52:40;;;;;;;10.77;5.85;;;;;;;9.61;86.00;97594.53;5029888;28;20123;-69
2022/11/01 00:55:08;;;;;;;12.70;6.15;;;;;;;9.84;86.80;97615.00;5029763;28;20119;-70
2022/11/01 00:57:34;;;;;;;13.55;6.20;;;;;;;10.16;86.83;97649.16;5029830;28;20128;-68
2022/11/01 01:00:03;;;;;;;16.52;6.60;;;;;;;10.27;87.05;97673.22;5028688;28;20615;-70
2022/11/01 01:02:29;;;;;;;11.15;5.82;;;;;;;10.06;86.37;97655.97;5025249;28;20057;-68
2022/11/01 01:04:56;;;;;;;14.40;5.80;;;;;;;9.81;85.76;97626.78;5026443;28;20805;-68
2022/11/01 01:07:23;;;;;;;14.07;5.25;;;;;;;9.95;84.98;97656.81;5026587;28;20081;-68
2022/11/01 01:09:49;;;;;;;9.57;4.88;;;;;;;9.20;85.61;97545.13;5024972;28;20697;-69
2022/11/01 01:12:16;;;;;;;12.70;5.03;;;;;;;9.96;86.08;97673.06;5026850;28;20088;-69
2022/11/01 01:14:42;;;;;;;13.30;5.60;;;;;;;9.67;88.27;97651.25;5026190;28;20084;-69
2022/11/01 01:17:09;;;;;;;13.63;5.32;;;;;;;9.62;89.22;97645.97;5026456;28;20089;-69
2022/11/01 01:19:36;;;;;;;11.05;5.25;;;;;;;9.84;89.24;97664.00;5026397;28;20053;-68
2022/11/01 01:22:03;;;;;;;9.50;4.97;;;;;;;9.88;89.92;97660.16;5024783;28;20591;-70
2022/11/01 01:24:31;;;;;;;11.77;4.78;;;;;;;9.94;91.43;97658.75;5026042;28;20053;-69
2022/11/01 01:26:58;;;;;;;13.90;4.93;;;;;;;10.06;91.86;97661.50;5025761;28;20588;-69
2022/11/01 01:29:25;;;;;;;16.70;6.47;;;;;;;9.67;92.64;97670.63;5024842;28;20132;-69
2022/11/01 01:31:51;;;;;;;15.35;6.75;;;;;;;9.51;93.35;97622.72;5025012;28;20061;-69
2022/11/01 01:34:18;;;;;;;10.85;5.15;;;;;;;9.98;95.67;97670.75;5025249;28;20053;-70
2022/11/01 01:36:45;;;;;;;9.25;4.90;;;;;;;9.61;95.73;97611.13;5028716;28;20466;-68
2022/11/01 01:39:12;;;;;;;13.07;5.78;;;;;;;9.81;94.53;97604.63;5026596;28;20550;-69
2022/11/01 01:41:57;;;;;;;12.82;5.97;;;;;;;9.55;89.66;97661.53;5025052;28;20073;-62
2022/11/01 01:44:46;;;;;;;9.18;5.18;;;;;;;9.30;91.88;97665.47;5025912;28;20084;-63
2022/11/01 01:47:18;;;;;;;10.43;5.05;;;;;;;9.02;89.81;97610.09;5026914;28;20057;-70
2022/11/01 01:49:47;;;;;;;13.57;5.68;;;;;;;8.57;90.19;97559.69;5029451;28;20053;-69
2022/11/01 01:52:14;;;;;;;9.50;5.38;;;;;;;9.03;90.28;97634.63;5029246;28;20436;-69
2022/11/01 01:54:41;;;;;;;12.32;5.80;;;;;;;9.01;90.64;97636.09;5028160;28;20141;-68
2022/11/01 01:57:08;;;;;;;15.55;5.70;;;;;;;9.11;90.68;97677.09;5027699;28;20489;-68
2022/11/01 01:59:36;;;;;;;10.55;5.70;;;;;;;9.14;91.27;97668.13;5029819;28;20054;-68
2022/11/01 02:02:03;;;;;;;19.05;5.75;;;;;;;9.07;91.74;97645.81;5027028;28;20132;-68
2022/11/01 02:04:53;;;;;;;12.27;5.85;;;;;;;8.71;91.56;97601.59;5025589;28;20060;-63
2022/11/01 02:07:20;;;;;;;12.35;5.43;;;;;;;9.24;91.77;97667.66;5023250;28;20053;-63
2022/11/01 02:09:47;;;;;;;15.02;5.13;;;;;;;9.26;92.38;97665.38;5025042;28;20081;-65
2022/11/01 02:12:13;;;;;;;12.48;4.95;;;;;;;9.31;92.52;97667.09;5025033;28;20528;-63
2022/11/01 02:14:42;;;;;;;13.10;5.70;;;;;;;8.90;96.01;97599.84;5025300;28;20144;-63
2022/11/01 02:17:27;;;;;;;12.98;4.97;;;;;;;9.48;97.62;97684.25;5024888;28;20141;-63
2022/11/01 02:20:06;;;;;;;9.43;3.90;;;;;;;9.64;97.31;97682.34;5025086;28;20091;-63
2022/11/01 02:22:42;;;;;;;9.25;5.32;;;;;;;9.59;94.42;97679.84;5024653;28;20087;-64
2022/11/01 02:25:31;;;;;;;19.67;6.10;;;;;;;9.60;93.97;97686.97;5025165;28;20049;-63
2022/11/01 02:28:19;;;;;;;12.43;4.93;;;;;;;9.64;93.80;97682.34;5024436;28;20539;-63
2022/11/01 02:31:32;;;;;;;10.60;5.03;;;;;;;9.64;94.97;97689.88;5025282;28;20240;-63
2022/11/01 02:34:07;;;;;;;12.23;5.43;;;;;;;9.65;93.11;97683.97;5024881;28;20148;-63
2022/11/01 02:36:59;;;;;;;15.57;5.13;;;;;;;9.16;93.07;97610.56;5023351;28;20492;-63
2022/11/01 02:39:33;;;;;;;11.65;6.18;;;;;;;9.57;93.49;97687.69;5023448;28;20089;-70
2022/11/01 02:42:14;;;;;;;12.15;6.05;;;;;;;9.62;94.13;97679.16;5025107;28;20109;-69
2022/11/01 02:44:48;;;;;;;10.75;5.78;;;;;;;9.67;93.65;97687.22;5024735;28;20105;-70
2022/11/01 02:47:15;;;;;;;12.30;5.93;;;;;;;9.73;92.12;97669.22;5023542;28;20132;-71
2022/11/01 02:49:45;;;;;;;13.02;5.35;;;;;;;9.67;91.75;97676.16;5024583;28;20100;-72
2022/11/01 02:52:16;;;;;;;13.20;5.50;;;;;;;9.84;91.62;97717.38;5024341;28;20498;-70
2022/11/01 02:54:47;;;;;;;14.05;5.80;;;;;;;9.60;90.39;97642.72;5024548;28;20518;-70
2022/11/01 02:57:36;;;;;;;13.43;5.10;;;;;;;9.48;88.85;97642.75;5024787;28;20494;-70
2022/11/01 03:00:21;;;;;;;12.23;5.35;;;;;;;9.59;89.85;97677.09;5024844;28;20136;-65
2022/11/01 03:02:53;;;;;;;12.10;6.55;;;;;;;9.61;90.46;97710.72;5024202;28;20099;-63
2022/11/01 03:05:40;;;;;;;13.77;5.65;;;;;;;9.34;91.70;97702.34;5024534;28;20546;-64
2022/11/01 03:08:11;;;;;;;19.35;6.05;;;;;;;8.66;91.45;97604.59;5024266;28;20061;-69
2022/11/01 03:11:02;;;;;;;13.40;5.88;;;;;;;9.27;89.56;97705.69;5024171;28;20481;-70
2022/11/01 03:13:38;;;;;;;17.80;6.32;;;;;;;9.29;88.82;97703.38;5024700;28;20119;-69
2022/11/01 03:16:27;;;;;;;15.18;6.22;;;;;;;9.17;89.31;97706.94;5023295;28;20235;-69
2022/11/01 03:19:05;;;;;;;12.63;5.70;;;;;;;9.15;90.32;97703.72;5004934;28;20149;-70
2022/11/01 03:21:40;;;;;;;18.70;7.75;;;;;;;9.10;91.28;97690.13;5004575;28;20127;-70
2022/11/01 03:24:25;;;;;;;16.13;9.55;;;;;;;8.92;91.75;97666.63;5003854;28;20085;-69
2022/11/01 03:27:16;;;;;;;17.25;7.32;;;;;;;8.77;91.92;97642.44;5003014;28;20521;-67
2022/11/01 03:29:55;;;;;;;15.48;8.27;;;;;;;9.10;91.76;97683.78;5004448;28;20085;-69
2022/11/01 03:32:26;;;;;;;12.40;6.60;;;;;;;8.63;91.74;97608.81;5003021;28;20125;-69
2022/11/01 03:34:53;;;;;;;18.30;6.00;;;;;;;9.30;95.35;97710.50;5004299;28;20045;-69
2022/11/01 03:37:20;;;;;;;13.15;5.30;;;;;;;8.89;95.46;97600.19;5003424;28;20058;-69
2022/11/01 03:39:51;;;;;;;15.65;5.30;;;;;;;9.32;94.19;97701.88;5005991;28;20085;-70
2022/11/01 03:42:21;;;;;;;12.73;4.75;;;;;;;8.84;90.45;97714.50;5008749;28;20471;-69
2022/11/01 03:44:54;;;;;;;24.95;6.25;;;;;;;8.62;89.96;97701.09;5008727;28;20147;-70
2022/11/01 03:47:21;;;;;;;19.33;8.20;;;;;;;8.12;88.90;97620.44;5008653;28;20045;-70
2022/11/01 03:50:13;;;;;;;25.30;8.30;;;;;;;8.73;88.86;97718.03;5008238;28;20164;-70
2022/11/01 03:52:40;;;;;;;30.30;11.73;;;;;;;8.17;90.09;97638.72;5006780;28;20128;-68
2022/11/01 03:55:16;;;;;;;29.00;13.32;;;;;;;8.56;91.87;97709.94;5008078;28;20137;-68
2022/11/01 03:57:44;;;;;;;25.55;10.38;;;;;;;8.71;93.21;97707.34;5006636;28;20145;-68
2022/11/01 04:00:26;;;;;;;22.17;7.93;;;;;;;8.80;96.86;97712.78;5008130;28;20125;-69
2022/11/01 04:02:54;;;;;;;17.75;6.43;;;;;;;8.97;100.00;97704.28;5006897;28;20145;-70
2022/11/01 04:05:22;;;;;;;11.27;5.15;;;;;;;9.07;100.00;97712.91;5008124;28;20436;-68
2022/11/01 04:07:50;;;;;;;11.23;4.53;;;;;;;8.53;100.00;97614.00;5008114;28;20515;-68
2022/11/01 04:10:18;;;;;;;19.58;6.53;;;;;;;9.05;100.00;97709.72;5005959;28;20049;-69
2022/11/01 04:12:46;;;;;;;27.45;6.40;;;;;;;8.89;92.79;97707.94;5006475;28;20068;-63
2022/11/01 04:21:09;;;;;;;12.82;5.53;;;;;;;8.62;88.89;97716.88;5027410;28;20526;-65
2022/11/01 04:23:36;;;;;;;12.55;5.07;;;;;;;8.57;88.93;97714.31;5019305;28;20099;-65
2022/11/01 04:26:04;;;;;;;13.90;5.25;;;;;;;8.54;90.18;97710.28;5029970;28;20041;-62
2022/11/01 04:28:31;;;;;;;11.48;5.22;;;;;;;8.29;90.93;97677.41;5027031;28;20077;-62
2022/11/01 04:30:57;;;;;;;10.68;5.30;;;;;;;8.49;92.87;97717.97;5027001;28;20092;-63
2022/11/01 04:33:24;;;;;;;10.65;4.88;;;;;;;8.28;94.17;97695.13;5025850;28;20132;-63
2022/11/01 04:35:51;;;;;;;11.90;5.40;;;;;;;8.08;95.82;97668.38;5026775;28;20134;-63
2022/11/01 04:38:17;;;;;;;12.52;5.25;;;;;;;8.45;97.00;97709.59;5027044;28;20081;-63
2022/11/01 04:40:44;;;;;;;15.25;6.43;;;;;;;8.55;96.42;97727.69;5025683;28;20092;-65
2022/11/01 04:43:11;;;;;;;9.73;4.78;;;;;;;8.19;94.23;97645.50;5024172;28;20045;-62
2022/11/01 04:45:39;;;;;;;9.88;5.18;;;;;;;8.31;94.71;97722.06;5025488;28;20087;-66
2022/11/01 04:48:15;;;;;;;12.13;5.53;;;;;;;7.80;95.30;97645.22;5023895;28;20520;-63
2022/11/01 04:50:44;;;;;;;12.40;5.35;;;;;;;7.62;95.34;97626.09;5025298;28;20119;-63
2022/11/01 04:53:11;;;;;;;13.82;5.57;;;;;;;7.43;94.61;97587.16;5023990;28;20115;-65
2022/11/01 04:55:38;;;;;;;14.13;5.47;;;;;;;8.23;94.59;97742.25;5025774;28;20057;-63
2022/11/01 04:58:05;;;;;;;11.02;5.60;;;;;;;8.19;94.65;97708.19;5025289;28;20089;-63
2022/11/01 05:00:33;;;;;;;9.20;5.20;;;;;;;7.77;95.54;97651.44;5025659;28;20072;-63
2022/11/01 05:03:05;;;;;;;16.67;6.07;;;;;;;8.28;96.12;97722.75;5025496;28;20496;-64
2022/11/01 05:05:33;;;;;;;15.23;6.05;;;;;;;8.21;95.20;97700.34;5025514;28;20115;-68
2022/11/01 05:08:11;;;;;;;19.23;9.27;;;;;;;8.39;95.47;97734.97;5023636;28;20504;-68
2022/11/01 05:10:41;;;;;;;21.60;6.20;;;;;;;8.39;94.78;97732.22;5025178;28;20107;-69
2022/11/01 05:13:09;;;;;;;13.30;5.53;;;;;;;8.45;94.25;97728.91;5024326;28;20136;-69
2022/11/01 05:15:36;;;;;;;14.50;7.43;;;;;;;8.13;94.66;97676.41;5024990;28;20132;-70
2022/11/01 05:18:13;;;;;;;18.27;8.35;;;;;;;8.61;95.10;97737.34;5025776;28;20050;-69
2022/11/01 05:20:40;;;;;;;13.68;6.88;;;;;;;8.66;95.35;97739.91;5024927;28;20092;-69
2022/11/01 05:23:08;;;;;;;23.00;7.80;;;;;;;8.34;93.96;97693.78;5025648;28;20175;-69
2022/11/01 05:25:34;;;;;;;17.55;7.90;;;;;;;8.85;94.24;97731.91;5023312;28;20104;-69
2022/11/01 05:28:07;;;;;;;25.10;9.73;;;;;;;8.97;94.31;97723.63;5025023;28;20057;-68
2022/11/01 05:30:34;;;;;;;25.25;11.20;;;;;;;9.12;93.37;97736.75;5024813;28;20049;-69
2022/11/01 05:33:03;;;;;;;20.42;11.95;;;;;;;9.20;92.27;97733.06;5024336;28;20054;-69
2022/11/01 05:35:32;;;;;;;31.02;10.00;;;;;;;9.05;90.90;97706.13;5023120;28;20142;-63
2022/11/01 05:37:59;;;;;;;23.27;8.88;;;;;;;9.46;90.48;97744.63;5023284;28;20428;-64
2022/11/01 05:40:27;;;;;;;27.33;8.43;;;;;;;9.56;89.05;97741.41;4934394;28;2613449;-63
2022/11/01 05:42:54;;;;;;;20.98;7.90;;;;;;;9.75;86.28;97749.91;5026060;28;20057;-63
2022/11/01 05:45:20;;;;;;;25.42;9.02;;;;;;;9.56;86.87;97730.34;5025698;28;20440;-65
2022/11/01 05:47:47;;;;;;;21.98;8.07;;;;;;;9.56;86.63;97733.09;5025833;28;20088;-64
2022/11/01 05:50:15;;;;;;;25.02;8.40;;;;;;;9.52;86.91;97734.94;5025601;28;20101;-64
2022/11/01 05:52:42;;;;;;;29.17;10.25;;;;;;;9.66;86.13;97749.22;5023909;28;20053;-62
2022/11/01 05:55:09;;;;;;;44.83;18.13;;;;;;;9.24;86.47;97656.63;5025049;28;20085;-65
2022/11/01 05:57:36;;;;;;;35.65;13.90;;;;;;;10.05;84.89;97753.19;5025093;28;20092;-63
2022/11/01 06:00:05;;;;;;;49.72;12.95;;;;;;;10.14;84.28;97740.03;5024309;28;20093;-63
2022/11/01 06:02:32;;;;;;;49.65;15.63;;;;;;;10.19;83.80;97731.50;5024854;28;20483;-63
2022/11/01 06:04:59;;;;;;;152.82;26.63;;;;;;;10.42;82.51;97761.06;5023605;28;20057;-63
2022/11/01 06:07:28;;;;;;;53.55;19.65;;;;;;;10.55;82.36;97748.78;5025409;28;20057;-63
2022/11/01 06:09:55;;;;;;;46.25;17.02;;;;;;;10.19;81.66;97673.34;5025233;28;20058;-63
2022/11/01 06:12:24;;;;;;;43.78;13.73;;;;;;;10.88;81.03;97764.31;5025264;28;20414;-64
2022/11/01 06:14:51;;;;;;;47.90;13.80;;;;;;;10.98;81.18;97755.50;5025215;28;20049;-65
2022/11/01 06:17:17;;;;;;;31.60;11.63;;;;;;;11.13;81.89;97765.81;5025315;28;20049;-70
2022/11/01 06:19:44;;;;;;;29.15;9.10;;;;;;;10.52;80.05;97629.56;5025356;28;20057;-70
2022/11/01 06:22:11;;;;;;;32.67;9.52;;;;;;;11.61;80.14;97787.66;5025020;28;20379;-64
2022/11/01 06:24:37;;;;;;;26.55;9.95;;;;;;;11.75;79.96;97765.81;5025058;28;20053;-63
2022/11/01 06:27:04;;;;;;;34.60;10.93;;;;;;;11.94;79.05;97757.53;5025224;28;20627;-62
2022/11/01 06:29:36;;;;;;;26.57;10.83;;;;;;;12.19;79.41;97764.47;5025031;28;20049;-64
2022/11/01 06:32:04;;;;;;;34.75;12.50;;;;;;;12.02;79.15;97726.81;5023600;28;20065;-62
2022/11/01 06:34:30;;;;;;;36.28;13.32;;;;;;;12.59;77.88;97761.34;5025527;28;20132;-69
2022/11/01 06:36:57;;;;;;;34.85;12.68;;;;;;;12.79;77.70;97768.50;5023369;28;20132;-69
2022/11/01 06:39:24;;;;;;;43.20;18.90;;;;;;;13.01;76.39;97768.59;5023724;28;20053;-69
2022/11/01 06:41:51;;;;;;;40.60;17.77;;;;;;;12.97;77.01;97744.63;5025252;28;20592;-69
2022/11/01 06:44:17;;;;;;;30.92;14.45;;;;;;;13.29;76.66;97757.97;5024712;28;20163;-63
2022/11/01 06:46:44;;;;;;;38.58;15.80;;;;;;;13.55;75.05;97765.59;5022929;28;20092;-63
2022/11/01 06:49:11;;;;;;;32.63;16.58;;;;;;;13.33;74.00;97708.78;5023802;28;20140;-64
2022/11/01 06:51:44;;;;;;;34.00;13.82;;;;;;;10.76;74.34;97282.25;5020255;28;20495;-67
2022/11/01 06:54:11;;;;;;;34.28;14.55;;;;;;;13.54;72.71;97678.50;5021454;28;20103;-69
2022/11/01 06:56:37;;;;;;;26.60;13.30;;;;;;;14.33;71.83;97751.72;5023047;28;20107;-71
2022/11/01 06:59:04;;;;;;;26.40;12.38;;;;;;;13.87;72.34;97663.06;5023284;28;20095;-63
2022/11/01 07:01:31;;;;;;;30.92;12.45;;;;;;;14.22;71.98;97727.63;5024408;28;20111;-66
2022/11/01 07:03:58;;;;;;;28.35;12.82;;;;;;;14.71;70.95;97758.97;5026454;28;20045;-62
2022/11/01 07:06:29;;;;;;;22.90;12.57;;;;;;;13.67;70.60;97559.38;5023833;28;20135;-66
2022/11/01 07:08:57;;;;;;;23.42;10.82;;;;;;;15.11;70.11;97748.69;5023909;28;20057;-61
2022/11/01 07:11:24;;;;;;;26.05;10.23;;;;;;;15.26;69.42;97755.22;5022015;28;20060;-63
2022/11/01 07:13:58;;;;;;;22.27;10.85;;;;;;;15.39;68.58;97751.00;5022673;28;20080;-65
2022/11/01 07:16:25;;;;;;;18.42;10.02;;;;;;;14.95;68.52;97650.44;5023749;28;20123;-68
2022/11/01 07:18:52;;;;;;;18.38;9.77;;;;;;;15.68;67.70;97738.88;5022912;28;20053;-66
2022/11/01 07:21:19;;;;;;;20.33;8.73;;;;;;;15.75;67.42;97724.16;5022219;28;20053;-66
2022/11/01 07:23:45;;;;;;;17.85;8.27;;;;;;;16.18;66.93;97759.59;5021806;28;20061;-64
2022/11/01 07:26:12;;;;;;;25.58;6.78;;;;;;;16.28;66.21;97745.69;5022009;28;20487;-71
2022/11/01 07:28:39;;;;;;;15.23;7.13;;;;;;;16.57;65.32;97753.06;5022273;28;20061;-64
2022/11/01 07:31:06;;;;;;;10.90;6.35;;;;;;;16.63;64.60;97734.72;5022662;28;20127;-66
2022/11/01 07:33:33;;;;;;;18.92;5.90;;;;;;;16.91;64.68;97744.41;5037609;28;20111;-62
2022/11/01 07:36:01;;;;;;;13.90;5.53;;;;;;;16.86;63.36;97725.22;5023620;28;20045;-64
2022/11/01 07:38:28;;;;;;;17.17;6.47;;;;;;;16.95;63.96;97739.63;5022147;28;20049;-63
2022/11/01 07:40:55;;;;;;;12.35;4.70;;;;;;;16.64;62.94;97641.19;5021645;28;20111;-72
2022/11/01 07:43:22;;;;;;;11.57;5.10;;;;;;;17.26;62.03;97705.31;5023312;28;20042;-63
2022/11/01 07:45:49;;;;;;;15.75;4.80;;;;;;;15.74;60.13;97424.47;5022078;28;20053;-61
2022/11/01 07:48:17;;;;;;;13.68;4.10;;;;;;;17.84;59.60;97736.59;5022455;28;20092;-63
2022/11/01 07:50:45;;;;;;;12.63;4.40;;;;;;;17.64;59.67;97676.56;5022939;28;20097;-68
2022/11/01 07:53:13;;;;;;;11.18;4.20;;;;;;;18.05;59.77;97726.16;5022341;28;20073;-61
2022/11/01 07:55:40;;;;;;;11.52;3.75;;;;;;;17.60;59.12;97620.53;5022394;28;20142;-62
2022/11/01 07:58:08;;;;;;;14.02;4.25;;;;;;;18.42;58.61;97706.06;5014990;28;20049;-64
2022/11/01 08:00:35;;;;;;;14.07;4.15;;;;;;;18.52;57.72;97694.03;5021454;28;20108;-63
2022/11/01 08:03:29;;;;;;;9.32;4.00;;;;;;;18.70;56.72;97720.00;5023122;28;20072;-63
2022/11/01 08:05:56;;;;;;;15.13;4.25;;;;;;;18.30;56.02;97635.56;5014256;28;20069;-63
2022/11/01 08:08:23;;;;;;;17.20;7.30;;;;;;;18.95;56.24;97719.91;5022054;28;20198;-61
2022/11/01 08:10:50;;;;;;;11.30;4.68;;;;;;;19.21;55.21;97739.81;5022194;28;20580;-61
2022/11/01 08:13:21;;;;;;;13.30;5.70;;;;;;;19.23;54.46;97733.78;5021559;28;20053;-61
2022/11/01 08:15:49;;;;;;;11.65;4.30;;;;;;;19.46;53.93;97737.69;5024176;28;20097;-69
2022/11/01 08:18:17;;;;;;;16.05;4.22;;;;;;;17.72;53.75;97453.97;5021720;28;20123;-61
2022/11/01 08:20:44;;;;;;;13.88;4.53;;;;;;;18.49;53.65;97571.38;5020744;28;20049;-60
2022/11/01 08:23:11;;;;;;;16.23;4.75;;;;;;;18.69;53.25;97586.50;5021511;28;20053;-61
2022/11/01 08:25:38;;;;;;;12.23;4.43;;;;;;;19.62;52.63;97683.75;5024728;28;20056;-61
2022/11/01 08:28:11;;;;;;;14.52;4.90;;;;;;;19.74;52.80;97679.66;5025940;28;20057;-62
2022/11/01 08:30:41;;;;;;;19.05;5.18;;;;;;;19.74;52.12;97657.97;5024573;28;20115;-63
2022/11/01 08:33:08;;;;;;;19.83;5.53;;;;;;;18.28;51.89;97405.16;5025107;28;20130;-62
2022/11/01 08:35:34;;;;;;;14.50;4.43;;;;;;;20.25;51.65;97699.28;5020988;28;20100;-72
2022/11/01 08:38:04;;;;;;;11.57;3.80;;;;;;;19.46;52.65;97642.13;5017202;28;20050;-63
2022/11/01 08:40:32;;;;;;;18.35;4.60;;;;;;;19.97;52.90;97689.06;5017575;28;20057;-64
2022/11/01 08:42:59;;;;;;;11.00;4.63;;;;;;;20.34;51.60;97703.19;5024138;28;20496;-62
2022/11/01 08:45:27;;;;;;;17.63;5.57;;;;;;;20.52;51.17;97689.72;5025532;28;20049;-62
2022/11/01 08:48:03;;;;;;;19.75;5.70;;;;;;;20.32;50.99;97651.34;5023870;28;20092;-71
2022/11/01 08:50:32;;;;;;;15.05;5.90;;;;;;;20.57;50.90;97654.66;5023951;28;20049;-62
2022/11/01 08:53:18;;;;;;;21.63;5.68;;;;;;;20.44;50.35;97600.94;5025776;28;20129;-61
2022/11/01 08:55:45;;;;;;;18.50;5.00;;;;;;;21.10;50.14;97680.16;5026366;28;20089;-61
2022/11/01 08:58:11;;;;;;;16.08;5.13;;;;;;;20.82;49.83;97616.50;5024655;28;20409;-60
2022/11/01 09:00:38;;;;;;;7.53;4.50;;;;;;;20.85;49.09;97623.31;5026001;28;20103;-65
2022/11/01 09:03:05;;;;;;;12.40;4.75;;;;;;;21.44;49.32;97658.28;5026170;28;20056;-64
2022/11/01 09:05:31;;;;;;;11.68;5.25;;;;;;;21.75;47.95;97679.53;5025707;28;20128;-60
2022/11/01 09:07:59;;;;;;;12.30;4.75;;;;;;;21.68;47.37;97640.16;5025713;28;20096;-63
2022/11/01 09:10:29;;;;;;;14.95;5.25;;;;;;;22.05;47.32;97676.59;5025307;28;20057;-70
2022/11/01 09:13:00;;;;;;;11.68;4.95;;;;;;;21.96;46.87;97633.25;5024137;28;20053;-70
2022/11/01 09:15:28;;;;;;;14.70;4.97;;;;;;;21.83;46.70;97596.41;5025913;28;20060;-59
2022/11/01 09:17:55;;;;;;;13.13;4.35;;;;;;;21.86;46.68;97609.63;5024898;28;20089;-62
2022/11/01 09:20:22;;;;;;;13.98;4.78;;;;;;;22.43;46.15;97658.13;5023664;28;20125;-59
2022/11/01 09:22:51;;;;;;;16.95;5.43;;;;;;;22.35;46.13;97616.38;5023793;28;20057;-66
2022/11/01 09:25:18;;;;;;;10.20;4.47;;;;;;;22.69;46.04;97647.16;5025220;28;20064;-64
2022/11/01 09:27:44;;;;;;;10.30;5.50;;;;;;;22.87;45.24;97647.56;5022432;28;20107;-59
2022/11/01 09:30:11;;;;;;;15.25;5.10;;;;;;;22.80;45.08;97625.13;5023244;28;20559;-65
2022/11/01 09:32:38;;;;;;;11.77;4.68;;;;;;;22.14;45.31;97484.94;5024515;28;20386;-67
2022/11/01 09:35:05;;;;;;;12.00;4.90;;;;;;;23.11;44.86;97612.31;5025534;28;20092;-69
2022/11/01 09:37:32;;;;;;;17.15;5.20;;;;;;;23.39;44.14;97637.13;5024448;28;20065;-59
2022/11/01 09:39:59;;;;;;;13.55;5.47;;;;;;;23.50;44.15;97634.81;5021486;28;20156;-59
2022/11/01 09:42:34;;;;;;;14.13;5.00;;;;;;;23.59;43.88;97632.16;5030113;28;20142;-59
2022/11/01 09:45:16;;;;;;;14.63;5.25;;;;;;;22.87;44.62;97624.97;5023148;28;20123;-66
2022/11/01 09:47:47;;;;;;;12.27;4.45;;;;;;;23.45;44.16;97626.88;5022196;28;20130;-73
2022/11/01 09:50:28;;;;;;;14.65;5.03;;;;;;;23.62;43.85;97631.28;5016478;28;20107;-60
2022/11/01 09:52:56;;;;;;;10.10;5.95;;;;;;;23.81;43.31;97616.25;5025356;28;20049;-74
2022/11/01 09:55:56;;;;;;;13.05;5.13;;;;;;;23.96;42.86;97625.16;5024813;28;20053;-71
2022/11/01 09:58:42;;;;;;;9.25;4.68;;;;;;;24.04;42.55;97615.28;5024787;28;20061;-59
2022/11/01 10:01:38;;;;;;;12.88;5.95;;;;;;;24.10;42.94;97610.66;5023488;28;20053;-59
2022/11/01 10:04:14;;;;;;;18.27;8.70;;;;;;;24.36;42.56;97607.47;5026945;28;20523;-67
2022/11/01 10:06:53;;;;;;;17.35;8.65;;;;;;;24.48;41.93;97601.06;5029217;28;20092;-69
2022/11/01 10:09:43;;;;;;;10.70;5.07;;;;;;;24.67;40.63;97600.13;5029922;28;20053;-58
2022/11/01 10:12:45;;;;;;;11.43;5.00;;;;;;;24.75;40.23;97601.53;5023494;28;20136;-69
2022/11/01 10:15:30;;;;;;;11.65;5.00;;;;;;;24.41;41.03;97592.78;5024148;28;20609;-60
2022/11/01 10:18:09;;;;;;;15.95;4.90;;;;;;;24.55;40.67;97591.59;5024300;28;20137;-66
2022/11/01 10:20:39;;;;;;;8.35;4.65;;;;;;;24.30;41.08;97586.63;5023978;28;20148;-59
2022/11/01 10:23:05;;;;;;;6.55;4.93;;;;;;;24.49;40.76;97582.03;5016828;28;20057;-59
2022/11/01 10:25:37;;;;;;;34.22;12.20;;;;;;;24.13;41.79;97582.25;5024386;28;20507;-61
2022/11/01 10:28:53;;;;;;;13.23;6.10;;;;;;;24.17;41.04;97582.16;5024510;28;20156;-59
2022/11/01 10:31:23;;;;;;;9.95;4.30;;;;;;;24.32;41.27;97572.81;5024186;28;20077;-61
2022/11/01 10:33:58;;;;;;;12.93;5.63;;;;;;;24.62;40.75;97575.16;5022334;28;20057;-59
2022/11/01 10:36:38;;;;;;;14.25;5.15;;;;;;;24.76;40.06;97569.09;5022238;28;20057;-66
2022/11/01 10:39:14;;;;;;;15.45;5.88;;;;;;;24.21;41.23;97571.50;5023611;28;20510;-68
2022/11/01 10:42:08;;;;;;;54.55;24.40;;;;;;;24.40;41.40;97562.06;5024349;28;20602;-67
2022/11/01 10:44:41;;;;;;;13.77;6.20;;;;;;;24.48;40.36;97569.91;5024192;28;20104;-59
2022/11/01 10:47:15;;;;;;;9.95;5.68;;;;;;;24.75;40.45;97563.88;5015771;28;20099;-67
2022/11/01 10:49:45;;;;;;;;;;;;;;;25.02;40.25;97565.00;5025029;28;20144;-67
2022/11/01 10:52:38;;;;;;;14.38;4.72;;;;;;;25.19;39.40;97566.50;5023046;28;19925;-67
2022/11/01 10:55:06;;;;;;;15.07;5.65;;;;;;;24.88;38.76;97497.44;5024536;28;20459;-60
2022/11/01 10:57:45;;;;;;;13.18;5.50;;;;;;;24.95;39.12;97548.25;5024263;28;20108;-63
2022/11/01 11:00:17;;;;;;;13.38;5.93;;;;;;;25.08;39.39;97551.88;5027363;28;20488;-60
2022/11/01 11:02:57;;;;;;;15.40;6.38;;;;;;;25.42;38.11;97542.66;5027399;28;20061;-67
2022/11/01 11:05:27;;;;;;;12.43;5.28;;;;;;;25.44;38.37;97533.69;5024367;28;20049;-68
2022/11/01 11:07:56;;;;;;;12.88;5.50;;;;;;;25.13;38.49;97480.41;5022769;28;20127;-67
2022/11/01 11:10:26;;;;;;;15.30;5.25;;;;;;;25.53;38.42;97537.44;5023175;28;20115;-69
2022/11/01 11:13:01;;;;;;;14.45;7.18;;;;;;;25.17;38.37;97455.56;5023020;28;20053;-66
2022/11/01 11:15:38;;;;;;;14.75;5.50;;;;;;;25.61;38.04;97507.56;5022906;28;20067;-59
2022/11/01 11:18:13;;;;;;;14.55;4.93;;;;;;;25.84;37.69;97523.38;5021858;28;20270;-66
2022/11/01 11:20:40;;;;;;;13.30;5.20;;;;;;;25.77;37.55;97492.41;5022192;28;20049;-69
2022/11/01 11:23:11;;;;;;;11.15;5.13;;;;;;;26.06;37.77;97505.16;5022079;28;20041;-60
2022/11/01 11:25:41;;;;;;;11.13;4.82;;;;;;;26.21;38.00;97509.03;5022937;28;20503;-67
2022/11/01 11:28:28;;;;;;;10.88;5.35;;;;;;;26.06;37.05;97512.88;5023189;28;20049;-68
2022/11/01 11:30:56;;;;;;;14.75;4.95;;;;;;;25.90;37.49;97507.34;5022726;28;20107;-68
2022/11/01 11:33:22;;;;;;;10.00;4.80;;;;;;;25.38;37.36;97434.22;5022671;28;20144;-67
2022/11/01 11:35:56;;;;;;;10.93;4.40;;;;;;;25.90;37.47;97504.50;5024514;28;20057;-58
2022/11/01 11:38:44;;;;;;;8.32;4.53;;;;;;;26.07;37.49;97503.09;5022066;28;20144;-58
2022/11/01 11:41:26;;;;;;;11.27;4.18;;;;;;;26.07;36.77;97483.22;5021378;28;20053;-59
2022/11/01 11:43:52;;;;;;;21.42;10.32;;;;;;;26.06;36.75;97495.84;5022145;28;20045;-59
2022/11/01 11:46:25;;;;;;;18.67;6.18;;;;;;;25.28;37.46;97453.16;5022924;28;20136;-59
2022/11/01 11:49:03;;;;;;;22.73;9.38;;;;;;;25.55;37.54;97494.41;5022726;28;20144;-70
2022/11/01 11:51:33;;;;;;;9.75;5.45;;;;;;;25.68;37.21;97486.66;5022190;28;20107;-60
2022/11/01 11:54:09;;;;;;;14.65;4.45;;;;;;;25.67;36.98;97485.06;5022271;28;20092;-71